Time;durP1;ratioP1;P1;durP2;ratioP2;P2;SDS_P1;SDS_P2;PMS_P1;PMS_P2;Temp;Humidity;BMP_temperature;BMP_pressure;BME280_temperature;BME280_humidity;BME280_pressure;Samples;Min_cycle;Max_cycle;Signal;HPM_P1;HPM_P2
2023/08/05 00:00:11;;;;;;;5.65;2.15;;;17.30;99.90;;;;;;5104041;28;20416;-70
2023/08/05 00:02:36;;;;;;;7.30;2.60;;;17.30;99.90;;;;;;5105318;28;20392;-70
2023/08/05 00:05:02;;;;;;;7.67;2.80;;;17.30;99.90;;;;;;5093717;28;20406;-71
2023/08/05 00:07:28;;;;;;;8.15;3.00;;;17.20;99.90;;;;;;5066776;28;20973;-70
2023/08/05 00:09:53;;;;;;;8.37;2.90;;;17.30;99.90;;;;;;5094861;28;20402;-70
2023/08/05 00:12:19;;;;;;;7.65;3.10;;;17.20;99.90;;;;;;5109543;28;20481;-70
2023/08/05 00:14:46;;;;;;;7.87;3.00;;;17.20;99.90;;;;;;5108387;28;20389;-70
2023/08/05 00:17:12;;;;;;;6.60;2.60;;;17.20;99.90;;;;;;5097570;28;20411;-70
2023/08/05 00:19:38;;;;;;;7.63;2.92;;;17.20;99.90;;;;;;5107722;28;20428;-70
2023/08/05 00:22:04;;;;;;;9.13;2.90;;;17.20;99.90;;;;;;5097137;28;20392;-71
2023/08/05 00:24:29;;;;;;;7.15;2.72;;;17.10;99.90;;;;;;5107876;28;20454;-70
2023/08/05 00:26:55;;;;;;;9.27;2.80;;;17.10;99.90;;;;;;5083275;28;20921;-70
2023/08/05 00:29:20;;;;;;;6.80;2.38;;;17.10;99.90;;;;;;5106954;28;20864;-70
2023/08/05 00:31:46;;;;;;;8.63;2.63;;;17.10;99.90;;;;;;5107344;28;20399;-70
2023/08/05 00:34:11;;;;;;;6.57;2.30;;;17.10;99.90;;;;;;5095182;28;20733;-70
2023/08/05 00:36:37;;;;;;;6.57;2.88;;;17.10;99.90;;;;;;5100604;28;20390;-70
2023/08/05 00:39:03;;;;;;;7.17;2.57;;;17.10;99.90;;;;;;5100768;28;20424;-70
2023/08/05 00:41:28;;;;;;;8.53;3.30;;;17.10;99.90;;;;;;5105389;28;20910;-70
2023/08/05 00:43:54;;;;;;;6.15;2.63;;;17.10;99.90;;;;;;5105530;28;20411;-70
2023/08/05 00:46:22;;;;;;;7.33;3.20;;;17.10;99.90;;;;;;5093104;28;21022;-70
2023/08/05 00:48:50;;;;;;;9.50;3.40;;;17.10;99.90;;;;;;5081214;28;20398;-71
2023/08/05 00:51:18;;;;;;;6.32;3.10;;;17.00;99.90;;;;;;5090886;28;21028;-70
2023/08/05 00:53:45;;;;;;;8.17;3.33;;;17.00;99.90;;;;;;5101707;28;20406;-70
2023/08/05 00:56:11;;;;;;;10.85;3.45;;;17.00;99.90;;;;;;5094167;28;20393;-70
2023/08/05 00:58:38;;;;;;;6.75;3.10;;;17.00;99.90;;;;;;5108372;28;20423;-70
2023/08/05 01:01:04;;;;;;;8.25;2.70;;;16.90;99.90;;;;;;5104889;28;20494;-71
2023/08/05 01:03:30;;;;;;;6.40;2.90;;;17.00;99.90;;;;;;5097051;28;20971;-70
2023/08/05 01:05:56;;;;;;;6.87;3.00;;;16.90;99.90;;;;;;5101729;28;20402;-70
2023/08/05 01:08:22;;;;;;;9.45;3.45;;;17.00;99.90;;;;;;5108874;28;20792;-70
2023/08/05 01:10:48;;;;;;;7.82;4.28;;;17.00;99.90;;;;;;5107060;28;20820;-71
2023/08/05 01:13:14;;;;;;;11.80;4.75;;;17.00;99.90;;;;;;5107350;28;20420;-70
2023/08/05 01:15:40;;;;;;;6.77;3.20;;;16.90;99.90;;;;;;5101813;28;20404;-71
2023/08/05 01:18:09;;;;;;;7.30;3.53;;;16.90;99.90;;;;;;5107318;28;20404;-68
2023/08/05 01:20:38;;;;;;;6.35;3.25;;;17.00;99.90;;;;;;5092178;28;20412;-69
2023/08/05 01:23:12;;;;;;;6.67;3.40;;;16.90;99.90;;;;;;5103246;28;20485;-70
2023/08/05 01:25:39;;;;;;;5.30;3.20;;;16.90;99.90;;;;;;5107943;28;20399;-70
2023/08/05 01:28:06;;;;;;;9.23;3.37;;;16.90;99.90;;;;;;5106381;28;20397;-69
2023/08/05 01:30:33;;;;;;;7.50;2.97;;;16.90;99.90;;;;;;5108100;27;20431;-69
2023/08/05 01:33:03;;;;;;;8.32;3.63;;;16.90;99.90;;;;;;5093661;28;20879;-69
2023/08/05 01:35:29;;;;;;;6.20;2.90;;;16.90;99.90;;;;;;5106683;28;20462;-70
2023/08/05 01:37:55;;;;;;;6.40;2.83;;;16.90;99.90;;;;;;5105973;28;20400;-69
2023/08/05 01:40:21;;;;;;;6.22;2.88;;;16.80;99.90;;;;;;5107441;28;20405;-69
2023/08/05 01:42:46;;;;;;;7.67;2.93;;;16.80;99.90;;;;;;5105574;28;20400;-69
2023/08/05 01:45:12;;;;;;;9.90;3.25;;;16.80;99.90;;;;;;5107238;28;20927;-69
2023/08/05 01:47:37;;;;;;;5.90;3.07;;;16.80;99.90;;;;;;5105146;28;20457;-69
2023/08/05 01:50:03;;;;;;;7.47;2.93;;;16.80;99.90;;;;;;5105499;28;20766;-70
2023/08/05 01:52:29;;;;;;;7.55;2.72;;;16.80;99.90;;;;;;5102540;28;20736;-69
2023/08/05 01:54:54;;;;;;;6.07;2.97;;;16.80;99.90;;;;;;5096679;28;20427;-69
2023/08/05 01:57:20;;;;;;;6.93;3.37;;;16.70;99.90;;;;;;5104761;28;20424;-70
2023/08/05 01:59:46;;;;;;;5.90;3.10;;;16.70;99.90;;;;;;5106556;28;20452;-69
2023/08/05 02:02:11;;;;;;;6.32;3.53;;;16.70;99.90;;;;;;5090302;28;20406;-70
2023/08/05 02:04:37;;;;;;;5.37;3.10;;;16.60;99.90;;;;;;5088285;28;20489;-70
2023/08/05 02:07:02;;;;;;;7.67;3.20;;;16.50;99.90;;;;;;5084948;28;20939;-70
2023/08/05 02:09:28;;;;;;;8.85;3.65;;;16.50;99.90;;;;;;5105641;28;20516;-71
2023/08/05 02:11:53;;;;;;;7.23;3.17;;;16.50;99.90;;;;;;5101846;28;20399;-70
2023/08/05 02:14:19;;;;;;;6.15;3.15;;;16.50;99.90;;;;;;5096089;28;20833;-70
2023/08/05 02:16:44;;;;;;;5.90;3.08;;;16.50;99.90;;;;;;5103249;28;20504;-70
2023/08/05 02:19:10;;;;;;;7.47;3.60;;;16.50;99.90;;;;;;5106106;28;20452;-70
2023/08/05 02:21:36;;;;;;;7.45;3.47;;;16.50;99.90;;;;;;5091450;28;20503;-71
2023/08/05 02:24:01;;;;;;;5.23;3.20;;;16.50;99.90;;;;;;5092032;28;20410;-70
2023/08/05 02:26:27;;;;;;;6.78;3.13;;;16.50;99.90;;;;;;5095009;28;20425;-71
2023/08/05 02:28:53;;;;;;;7.20;3.70;;;16.40;99.90;;;;;;5092638;28;20409;-70
2023/08/05 02:31:18;;;;;;;6.40;3.33;;;16.50;99.90;;;;;;5094819;28;20448;-70
2023/08/05 02:33:44;;;;;;;6.28;3.40;;;16.40;99.90;;;;;;5088403;28;20444;-70
2023/08/05 02:36:10;;;;;;;6.83;3.30;;;16.40;99.90;;;;;;5087302;28;20406;-70
2023/08/05 02:38:35;;;;;;;6.85;3.42;;;16.30;99.90;;;;;;5090802;28;20457;-69
2023/08/05 02:41:05;;;;;;;6.17;3.53;;;16.30;99.90;;;;;;5092465;28;20398;-69
2023/08/05 02:43:31;;;;;;;7.80;3.90;;;16.30;99.90;;;;;;5090872;28;20402;-70
2023/08/05 02:45:57;;;;;;;7.97;3.47;;;16.20;99.90;;;;;;5091488;28;20402;-70
2023/08/05 02:48:26;;;;;;;7.70;3.73;;;16.20;99.90;;;;;;5090242;28;20394;-70
2023/08/05 02:50:53;;;;;;;8.35;3.92;;;16.10;99.90;;;;;;5091444;28;20405;-70
2023/08/05 02:53:19;;;;;;;7.50;3.70;;;16.10;99.90;;;;;;5088191;28;20398;-70
2023/08/05 02:55:45;;;;;;;6.60;3.53;;;16.00;99.90;;;;;;5091631;28;20411;-70
2023/08/05 02:58:11;;;;;;;6.00;3.40;;;16.00;99.90;;;;;;5105843;28;20909;-70
2023/08/05 03:00:36;;;;;;;7.00;4.07;;;15.90;99.90;;;;;;5104807;28;20457;-70
2023/08/05 03:03:02;;;;;;;8.47;4.07;;;15.90;99.90;;;;;;5105822;28;20777;-71
2023/08/05 03:05:28;;;;;;;8.45;3.60;;;15.80;99.90;;;;;;5108752;28;20402;-71
2023/08/05 03:07:54;;;;;;;7.35;4.15;;;15.80;99.90;;;;;;5110507;28;20392;-71
2023/08/05 03:10:20;;;;;;;6.20;3.70;;;15.70;99.90;;;;;;5108635;27;20815;-71
2023/08/05 03:12:45;;;;;;;8.67;3.97;;;15.70;99.90;;;;;;5099712;28;20402;-71
2023/08/05 03:15:11;;;;;;;7.43;4.00;;;15.60;99.90;;;;;;5105479;28;20408;-71
2023/08/05 03:17:37;;;;;;;7.50;3.87;;;15.60;99.90;;;;;;5110390;28;20419;-71
2023/08/05 03:20:04;;;;;;;7.05;3.67;;;15.60;99.90;;;;;;5108600;28;20418;-71
2023/08/05 03:22:30;;;;;;;7.85;3.90;;;15.50;99.90;;;;;;5109756;28;20802;-69
2023/08/05 03:24:56;;;;;;;9.50;4.07;;;15.50;99.90;;;;;;5089783;28;20485;-69
2023/08/05 03:27:21;;;;;;;8.77;4.32;;;15.50;99.90;;;;;;5110000;28;20509;-70
2023/08/05 03:29:47;;;;;;;6.80;3.77;;;15.50;99.90;;;;;;5107480;28;20412;-70
2023/08/05 03:32:13;;;;;;;7.65;4.00;;;15.50;99.90;;;;;;5099151;28;20899;-69
2023/08/05 03:34:38;;;;;;;11.43;4.77;;;15.50;99.90;;;;;;5105195;28;20402;-70
2023/08/05 03:37:04;;;;;;;10.68;4.40;;;15.50;99.90;;;;;;5110039;28;20924;-69
2023/08/05 03:39:30;;;;;;;10.77;4.50;;;15.50;99.90;;;;;;5106817;28;20886;-69
2023/08/05 03:41:56;;;;;;;7.10;4.17;;;15.50;99.90;;;;;;5109418;28;20426;-70
2023/08/05 03:44:21;;;;;;;9.60;4.20;;;15.50;99.90;;;;;;5106714;28;20408;-69
2023/08/05 03:46:47;;;;;;;8.23;4.40;;;15.50;99.90;;;;;;5098482;28;20451;-70
2023/08/05 03:49:12;;;;;;;6.90;4.30;;;15.50;99.90;;;;;;5101992;28;20425;-69
2023/08/05 03:51:38;;;;;;;7.70;3.83;;;15.50;99.90;;;;;;5107135;28;20431;-69
2023/08/05 03:54:03;;;;;;;9.73;4.20;;;15.50;99.90;;;;;;5100853;28;22012;-69
2023/08/05 03:56:30;;;;;;;7.20;3.97;;;15.50;99.90;;;;;;5098039;28;20403;-69
2023/08/05 03:58:56;;;;;;;8.60;3.63;;;15.50;99.90;;;;;;5091750;27;20433;-69
2023/08/05 04:01:22;;;;;;;8.85;4.30;;;15.50;99.90;;;;;;5097750;28;20404;-69
2023/08/05 04:03:49;;;;;;;11.25;4.35;;;15.50;99.90;;;;;;5107047;28;20418;-69
2023/08/05 04:06:15;;;;;;;6.95;3.70;;;15.50;99.90;;;;;;5108704;28;20408;-68
2023/08/05 04:08:41;;;;;;;7.55;3.88;;;15.50;99.90;;;;;;5102253;28;20456;-69
2023/08/05 04:11:08;;;;;;;7.60;3.70;;;15.50;99.90;;;;;;5098686;28;20400;-69
2023/08/05 04:13:35;;;;;;;8.50;3.67;;;15.50;99.90;;;;;;5093966;28;20410;-70
2023/08/05 04:16:03;;;;;;;9.00;4.03;;;15.50;99.90;;;;;;5106864;28;20404;-70
2023/08/05 04:18:33;;;;;;;8.10;3.90;;;15.40;99.90;;;;;;5104755;28;20513;-70
2023/08/05 04:20:58;;;;;;;7.93;3.47;;;15.40;99.90;;;;;;5107410;28;20476;-70
2023/08/05 04:23:25;;;;;;;7.73;3.47;;;15.40;99.90;;;;;;5093210;28;20483;-70
2023/08/05 04:25:51;;;;;;;7.38;3.35;;;15.40;99.90;;;;;;5097538;28;20406;-70
2023/08/05 04:28:17;;;;;;;8.85;3.85;;;15.40;99.90;;;;;;5104187;28;20783;-70
2023/08/05 04:30:43;;;;;;;7.60;3.33;;;15.40;99.90;;;;;;5107503;28;20428;-70
2023/08/05 04:33:08;;;;;;;8.98;3.50;;;15.30;99.90;;;;;;5101335;28;20451;-70
2023/08/05 04:35:35;;;;;;;7.10;3.43;;;15.30;99.90;;;;;;5098003;28;20471;-70
2023/08/05 04:38:01;;;;;;;6.38;3.15;;;15.30;99.90;;;;;;5105404;28;20429;-71
2023/08/05 04:40:26;;;;;;;6.23;3.60;;;15.30;99.90;;;;;;5097025;28;20413;-70
2023/08/05 04:42:52;;;;;;;7.85;3.47;;;15.30;99.90;;;;;;5101695;28;20404;-70
2023/08/05 04:45:17;;;;;;;7.73;3.53;;;15.30;99.90;;;;;;5107020;28;20750;-70
2023/08/05 04:47:43;;;;;;;6.45;3.28;;;15.30;99.90;;;;;;5103265;28;20481;-70
2023/08/05 04:50:09;;;;;;;6.53;3.30;;;15.30;99.90;;;;;;5097044;28;20805;-70
2023/08/05 04:52:34;;;;;;;6.65;3.40;;;15.30;99.90;;;;;;5099953;28;20401;-70
2023/08/05 04:55:10;;;;;;;6.83;3.50;;;15.30;99.90;;;;;;5097073;28;20473;-70
2023/08/05 04:57:35;;;;;;;6.40;3.33;;;15.30;99.90;;;;;;5105887;28;20411;-70
2023/08/05 05:00:01;;;;;;;6.88;3.40;;;15.30;99.90;;;;;;5106995;28;20420;-71
2023/08/05 05:02:27;;;;;;;7.53;3.15;;;15.40;99.90;;;;;;5103818;28;20469;-70
2023/08/05 05:04:52;;;;;;;8.48;3.45;;;15.40;99.90;;;;;;5107154;28;20411;-70
2023/08/05 05:07:18;;;;;;;5.40;3.42;;;15.50;99.90;;;;;;5088782;28;20462;-70
2023/08/05 05:09:44;;;;;;;7.05;3.45;;;15.50;99.90;;;;;;5099535;28;20727;-70
2023/08/05 05:12:10;;;;;;;7.87;3.00;;;15.60;99.90;;;;;;5104896;28;20419;-70
2023/08/05 05:14:43;;;;;;;7.30;2.92;;;15.60;99.90;;;;;;5095801;28;20832;-70
2023/08/05 05:17:08;;;;;;;7.63;3.35;;;15.50;99.90;;;;;;5103875;28;20404;-70
2023/08/05 05:19:34;;;;;;;5.77;3.13;;;15.50;99.90;;;;;;5105849;28;20423;-70
2023/08/05 05:21:59;;;;;;;7.10;2.93;;;15.60;99.90;;;;;;5105114;28;20750;-70
2023/08/05 05:24:25;;;;;;;10.45;3.00;;;15.60;99.90;;;;;;5106122;28;20396;-70
2023/08/05 05:26:51;;;;;;;7.70;2.63;;;15.60;99.90;;;;;;5099145;28;20409;-70
2023/08/05 05:29:19;;;;;;;7.00;2.95;;;15.70;99.90;;;;;;5098192;28;20775;-70
2023/08/05 05:31:45;;;;;;;6.03;2.90;;;15.80;99.90;;;;;;5093187;28;20427;-71
2023/08/05 05:34:11;;;;;;;7.35;2.92;;;15.80;99.90;;;;;;5104140;28;20443;-70
2023/08/05 05:36:36;;;;;;;7.53;2.93;;;15.90;99.90;;;;;;5098456;28;20892;-70
2023/08/05 05:39:02;;;;;;;6.17;2.60;;;15.90;99.90;;;;;;5096797;28;20435;-70
2023/08/05 05:41:28;;;;;;;6.23;2.90;;;16.00;99.90;;;;;;5097687;28;20447;-70
2023/08/05 05:43:55;;;;;;;6.85;2.67;;;16.10;99.90;;;;;;5096871;28;20393;-71
2023/08/05 05:46:21;;;;;;;6.35;2.47;;;16.30;99.90;;;;;;5099972;28;20400;-70
2023/08/05 05:48:47;;;;;;;6.97;2.53;;;16.30;99.90;;;;;;5101792;28;21070;-71
2023/08/05 05:51:13;;;;;;;3.87;2.00;;;16.40;99.90;;;;;;5099253;28;20392;-68
2023/08/05 05:53:38;;;;;;;6.68;2.42;;;16.40;99.90;;;;;;5101456;28;20424;-69
2023/08/05 05:56:05;;;;;;;6.10;2.30;;;16.50;99.90;;;;;;5086552;28;20405;-69
2023/08/05 05:58:34;;;;;;;5.60;1.97;;;16.50;99.90;;;;;;5099262;28;20845;-69
2023/08/05 06:01:00;;;;;;;4.50;2.20;;;16.50;99.90;;;;;;5106173;28;20967;-70
2023/08/05 06:03:26;;;;;;;4.95;2.15;;;16.50;99.90;;;;;;5105123;28;20921;-69
2023/08/05 06:05:52;;;;;;;5.33;2.23;;;16.60;99.90;;;;;;5093633;28;20385;-69
2023/08/05 06:08:18;;;;;;;4.80;1.83;;;16.70;99.90;;;;;;5091333;28;20398;-69
2023/08/05 06:10:43;;;;;;;6.68;2.00;;;16.70;99.90;;;;;;5105297;28;20958;-70
2023/08/05 06:13:09;;;;;;;5.13;1.80;;;16.80;99.90;;;;;;5092583;28;20477;-70
2023/08/05 06:15:41;;;;;;;4.43;1.87;;;16.80;99.90;;;;;;5105226;28;20399;-69
2023/08/05 06:18:08;;;;;;;4.90;1.70;;;16.90;99.90;;;;;;5103121;28;20490;-69
2023/08/05 06:20:34;;;;;;;4.25;1.52;;;16.90;99.90;;;;;;5106369;28;20392;-70
2023/08/05 06:23:00;;;;;;;4.77;1.97;;;17.10;99.90;;;;;;5102727;28;20404;-69
2023/08/05 06:25:25;;;;;;;4.13;1.70;;;17.10;99.90;;;;;;5106225;28;20396;-70
2023/08/05 06:27:51;;;;;;;4.85;1.60;;;17.10;99.90;;;;;;5103842;28;20407;-69
2023/08/05 06:30:17;;;;;;;4.70;1.53;;;17.10;99.90;;;;;;5098779;28;20390;-70
2023/08/05 06:32:42;;;;;;;4.22;1.55;;;17.10;99.90;;;;;;5087883;28;20394;-70
2023/08/05 06:35:08;;;;;;;4.13;1.50;;;17.00;99.90;;;;;;5105950;28;20396;-70
2023/08/05 06:37:34;;;;;;;4.88;1.73;;;17.00;99.90;;;;;;5103244;28;21176;-70
2023/08/05 06:39:59;;;;;;;5.97;1.50;;;17.00;99.90;;;;;;5086713;28;20435;-70
2023/08/05 06:42:26;;;;;;;4.28;1.77;;;17.00;99.90;;;;;;5106910;28;20445;-70
2023/08/05 06:44:52;;;;;;;4.80;1.60;;;17.00;99.90;;;;;;5098994;28;20408;-70
2023/08/05 06:47:18;;;;;;;4.03;1.65;;;17.10;99.90;;;;;;5105544;28;20392;-70
2023/08/05 06:49:44;;;;;;;4.03;1.60;;;17.10;99.90;;;;;;5108284;28;20414;-69
2023/08/05 06:52:09;;;;;;;4.60;1.70;;;17.20;99.90;;;;;;5106297;28;20404;-69
2023/08/05 06:54:35;;;;;;;4.43;1.50;;;17.30;99.90;;;;;;5101046;28;20489;-70
2023/08/05 06:57:01;;;;;;;4.47;1.50;;;17.30;99.90;;;;;;5102755;28;20830;-70
2023/08/05 06:59:29;;;;;;;3.92;1.58;;;17.40;99.90;;;;;;5097715;28;20439;-70
2023/08/05 07:01:55;;;;;;;5.80;1.70;;;17.40;99.90;;;;;;5105290;28;21257;-70
2023/08/05 07:04:20;;;;;;;2.60;1.30;;;17.40;99.90;;;;;;5102342;28;20398;-70
2023/08/05 07:06:46;;;;;;;3.92;1.40;;;17.40;99.90;;;;;;5102161;28;20406;-70
2023/08/05 07:09:12;;;;;;;3.57;1.60;;;17.50;99.90;;;;;;5108500;28;20735;-70
2023/08/05 07:11:37;;;;;;;4.57;1.30;;;17.50;99.90;;;;;;5106380;28;20392;-70
2023/08/05 07:14:03;;;;;;;3.97;1.70;;;17.40;99.90;;;;;;5097333;28;20425;-69
2023/08/05 07:16:29;;;;;;;4.63;1.63;;;17.50;99.90;;;;;;5106190;28;20396;-70
2023/08/05 07:18:54;;;;;;;3.90;1.50;;;17.60;99.90;;;;;;5107562;28;20431;-71
2023/08/05 07:21:20;;;;;;;4.60;1.50;;;17.60;99.90;;;;;;5094790;28;20760;-70
2023/08/05 07:23:46;;;;;;;4.63;1.60;;;17.60;99.90;;;;;;5087413;28;20404;-70
2023/08/05 07:26:11;;;;;;;4.20;1.52;;;17.70;99.90;;;;;;5085527;28;20400;-71
2023/08/05 07:28:37;;;;;;;3.37;1.50;;;17.80;99.90;;;;;;5089397;28;20408;-71
2023/08/05 07:31:08;;;;;;;4.07;1.48;;;17.90;99.90;;;;;;5088695;28;20473;-71
2023/08/05 07:33:34;;;;;;;4.30;1.45;;;18.10;99.90;;;;;;5087273;28;20464;-71
2023/08/05 07:36:13;;;;;;;4.97;1.70;;;18.20;99.90;;;;;;5089744;28;20970;-71
2023/08/05 07:38:45;;;;;;;3.83;1.48;;;18.40;99.90;;;;;;5083597;28;20783;-71
2023/08/05 07:41:11;;;;;;;4.40;1.55;;;18.70;99.90;;;;;;5090013;28;20756;-71
2023/08/05 07:43:38;;;;;;;4.35;1.75;;;18.90;99.90;;;;;;5086054;28;20440;-71
2023/08/05 07:46:04;;;;;;;4.15;1.73;;;19.10;99.90;;;;;;5084109;28;20394;-71
2023/08/05 07:48:35;;;;;;;5.32;1.52;;;19.10;99.90;;;;;;5089521;28;20398;-71
2023/08/05 07:51:06;;;;;;;4.97;1.67;;;19.10;99.90;;;;;;5088925;28;20402;-71
2023/08/05 07:53:36;;;;;;;4.50;1.93;;;19.10;99.90;;;;;;5082742;28;20403;-71
2023/08/05 07:56:13;;;;;;;5.97;1.98;;;19.10;99.90;;;;;;5087063;28;20406;-71
2023/08/05 07:58:42;;;;;;;4.40;1.80;;;19.10;99.90;;;;;;5086596;28;20475;-71
2023/08/05 08:01:08;;;;;;;4.78;1.60;;;19.00;99.90;;;;;;5089089;28;21276;-71
2023/08/05 08:03:34;;;;;;;5.50;2.08;;;19.00;99.90;;;;;;5074085;28;20408;-71
2023/08/05 08:06:00;;;;;;;3.53;1.40;;;19.10;99.90;;;;;;5082389;28;20980;-71
2023/08/05 08:08:25;;;;;;;4.05;1.27;;;19.20;99.90;;;;;;5085164;28;20411;-69
2023/08/05 08:10:51;;;;;;;4.73;1.50;;;19.20;99.90;;;;;;5088534;28;20427;-70
2023/08/05 08:13:17;;;;;;;4.10;1.30;;;19.20;99.90;;;;;;5097630;28;20896;-70
2023/08/05 08:15:42;;;;;;;4.07;1.37;;;19.20;99.90;;;;;;5090725;28;20453;-69
2023/08/05 08:18:08;;;;;;;2.97;1.20;;;19.20;99.90;;;;;;5104613;28;20395;-70
2023/08/05 08:20:34;;;;;;;4.20;1.30;;;19.20;99.90;;;;;;5082574;28;20425;-70
2023/08/05 08:22:59;;;;;;;2.40;0.90;;;19.30;99.90;;;;;;5085660;28;20402;-70
2023/08/05 08:25:25;;;;;;;2.65;1.25;;;19.20;99.90;;;;;;5105020;28;20396;-69
2023/08/05 08:27:50;;;;;;;4.17;1.70;;;19.30;99.90;;;;;;5105426;28;20392;-70
2023/08/05 08:30:16;;;;;;;4.07;1.50;;;19.30;99.90;;;;;;5105007;28;20788;-70
2023/08/05 08:32:42;;;;;;;3.17;0.98;;;19.40;99.90;;;;;;5088722;28;20444;-69
2023/08/05 08:35:08;;;;;;;4.23;1.10;;;19.40;99.90;;;;;;5104418;28;20400;-70
2023/08/05 08:37:33;;;;;;;3.42;1.00;;;19.60;99.90;;;;;;5095954;28;20402;-70
2023/08/05 08:39:59;;;;;;;2.30;1.02;;;19.80;99.90;;;;;;5094147;28;20441;-70
2023/08/05 08:42:26;;;;;;;2.30;0.90;;;19.80;99.90;;;;;;5099515;28;20514;-70
2023/08/05 08:44:53;;;;;;;3.43;0.90;;;19.90;99.90;;;;;;5096533;28;20412;-70
2023/08/05 08:47:20;;;;;;;2.42;0.82;;;19.90;99.90;;;;;;5099712;28;20462;-69
2023/08/05 08:49:52;;;;;;;2.83;1.00;;;20.00;99.90;;;;;;5091696;28;20410;-70
2023/08/05 08:52:18;;;;;;;3.15;0.93;;;20.20;99.90;;;;;;5088461;28;20414;-70
2023/08/05 08:54:44;;;;;;;2.50;0.80;;;20.30;99.90;;;;;;5098225;28;20903;-70
2023/08/05 08:57:13;;;;;;;2.88;1.00;;;20.40;99.90;;;;;;5100169;28;20389;-70
2023/08/05 08:59:41;;;;;;;2.20;0.88;;;20.50;99.90;;;;;;5094358;28;20439;-70
2023/08/05 09:02:23;;;;;;;2.30;0.80;;;20.60;99.90;;;;;;5096647;28;20421;-70
2023/08/05 09:04:54;;;;;;;2.22;0.85;;;20.70;99.90;;;;;;5098883;28;20400;-70
2023/08/05 09:07:25;;;;;;;2.30;0.80;;;20.70;99.90;;;;;;5093835;28;20410;-70
2023/08/05 09:09:51;;;;;;;2.30;0.85;;;20.80;99.90;;;;;;5095206;28;20404;-70
2023/08/05 09:12:16;;;;;;;2.40;1.00;;;20.90;99.90;;;;;;5101549;28;20401;-70
2023/08/05 09:14:42;;;;;;;2.28;0.70;;;21.00;99.90;;;;;;5095271;28;20413;-70
2023/08/05 09:17:08;;;;;;;4.40;0.80;;;21.10;99.90;;;;;;5094509;28;20489;-70
2023/08/05 09:19:33;;;;;;;1.67;0.70;;;21.20;99.90;;;;;;5097260;28;20436;-70
2023/08/05 09:22:05;;;;;;;2.50;0.90;;;21.20;99.90;;;;;;5098737;28;20410;-70
2023/08/05 09:24:31;;;;;;;2.60;0.93;;;21.30;99.90;;;;;;5084993;28;20457;-70
2023/08/05 09:26:59;;;;;;;1.83;0.88;;;21.50;99.90;;;;;;5100816;28;21055;-70
2023/08/05 09:29:26;;;;;;;2.20;0.70;;;21.70;99.90;;;;;;5100987;28;20407;-70
2023/08/05 09:31:55;;;;;;;2.33;0.90;;;21.90;99.90;;;;;;5099642;28;20467;-70
2023/08/05 09:34:26;;;;;;;2.60;1.00;;;22.00;99.90;;;;;;5094032;28;20419;-70
2023/08/05 09:36:52;;;;;;;2.80;0.90;;;22.00;99.90;;;;;;5088914;28;20410;-70
2023/08/05 09:39:17;;;;;;;2.00;0.90;;;22.10;99.90;;;;;;5095324;28;20488;-70
2023/08/05 09:41:51;;;;;;;2.50;1.00;;;22.10;99.90;;;;;;5095569;28;20404;-69
2023/08/05 09:44:17;;;;;;;2.97;0.80;;;22.00;99.90;;;;;;5094993;28;20405;-70
2023/08/05 09:46:46;;;;;;;1.95;1.00;;;22.00;99.90;;;;;;5088654;28;20958;-70
2023/08/05 09:49:14;;;;;;;1.85;0.70;;;22.20;99.90;;;;;;5091839;28;20421;-69
2023/08/05 09:51:42;;;;;;;1.27;0.70;;;22.20;99.90;;;;;;5088352;28;20413;-70
2023/08/05 09:54:12;;;;;;;2.50;0.85;;;22.20;99.90;;;;;;5069119;28;20414;-70
2023/08/05 09:56:39;;;;;;;2.90;0.90;;;22.20;99.90;;;;;;5096496;28;20400;-70
2023/08/05 09:59:07;;;;;;;2.58;0.90;;;22.00;99.90;;;;;;5086765;28;20437;-70
2023/08/05 10:01:36;;;;;;;2.60;0.77;;;22.10;99.90;;;;;;5097374;28;20465;-70
2023/08/05 10:04:02;;;;;;;1.83;0.70;;;22.30;99.90;;;;;;5105819;28;20396;-71
2023/08/05 10:06:29;;;;;;;2.08;0.77;;;22.40;99.90;;;;;;5094096;28;20421;-70
2023/08/05 10:08:56;;;;;;;2.60;0.70;;;22.40;99.80;;;;;;5100066;28;20483;-70
2023/08/05 10:11:23;;;;;;;3.35;1.10;;;22.40;99.50;;;;;;5098390;28;20419;-70
2023/08/05 10:13:53;;;;;;;1.88;0.70;;;22.40;99.40;;;;;;5097465;28;20931;-70
2023/08/05 10:16:20;;;;;;;1.15;0.75;;;22.40;98.80;;;;;;5096863;28;20425;-70
2023/08/05 10:18:48;;;;;;;1.92;0.80;;;22.30;98.30;;;;;;5097699;28;20514;-70
2023/08/05 10:21:37;;;;;;;2.60;0.73;;;22.40;98.30;;;;;;5104519;28;20796;-68
2023/08/05 10:24:03;;;;;;;3.90;0.98;;;22.70;99.20;;;;;;5087273;28;20400;-70
2023/08/05 10:26:43;;;;;;;2.42;0.73;;;23.30;98.50;;;;;;5089635;28;20936;-70
2023/08/05 10:29:28;;;;;;;1.83;0.65;;;23.80;98.40;;;;;;5094702;28;20405;-70
2023/08/05 10:32:10;;;;;;;1.75;0.80;;;24.20;96.90;;;;;;5102597;28;20486;-70
2023/08/05 10:34:36;;;;;;;2.13;0.80;;;24.50;96.70;;;;;;5098436;28;20406;-71
2023/08/05 10:37:03;;;;;;;1.60;0.77;;;24.80;96.30;;;;;;5088362;28;20402;-70
2023/08/05 10:39:39;;;;;;;2.17;0.90;;;24.60;94.60;;;;;;5097316;28;20441;-70
2023/08/05 10:42:27;;;;;;;2.00;0.80;;;24.40;94.80;;;;;;5093011;28;20422;-70
2023/08/05 10:44:58;;;;;;;1.95;0.80;;;24.30;94.40;;;;;;5091601;28;20420;-70
2023/08/05 10:47:24;;;;;;;2.60;0.68;;;24.10;95.00;;;;;;5089460;28;20394;-70
2023/08/05 10:49:57;;;;;;;1.90;0.70;;;23.90;94.40;;;;;;5096464;28;20406;-70
2023/08/05 10:52:22;;;;;;;2.50;0.70;;;23.70;94.50;;;;;;5096479;28;20477;-70
2023/08/05 10:54:50;;;;;;;1.73;0.73;;;23.60;94.80;;;;;;5096112;28;20490;-70
2023/08/05 10:57:34;;;;;;;2.35;0.73;;;23.50;94.90;;;;;;5084050;28;20398;-70
2023/08/05 11:00:00;;;;;;;3.15;0.90;;;23.30;94.70;;;;;;5094701;28;20939;-70
2023/08/05 11:02:26;;;;;;;3.13;0.93;;;23.20;94.50;;;;;;5085308;28;20501;-70
2023/08/05 11:05:08;;;;;;;2.05;0.90;;;23.10;94.50;;;;;;5080686;28;20503;-70
2023/08/05 11:07:37;;;;;;;3.72;0.90;;;23.00;95.70;;;;;;5079498;28;20514;-70
2023/08/05 11:10:05;;;;;;;3.25;0.88;;;23.00;95.80;;;;;;5071984;28;20404;-70
2023/08/05 11:12:31;;;;;;;2.05;0.68;;;22.90;95.20;;;;;;5070856;28;20925;-70
2023/08/05 11:14:58;;;;;;;1.83;0.75;;;22.90;94.50;;;;;;5080916;28;20919;-70
2023/08/05 11:17:24;;;;;;;1.40;0.80;;;22.90;94.70;;;;;;5078010;28;20413;-70
2023/08/05 11:19:50;;;;;;;3.40;0.90;;;23.10;95.20;;;;;;5073716;28;20427;-70
2023/08/05 11:22:30;;;;;;;2.85;1.10;;;23.50;95.20;;;;;;5079010;28;20804;-70
2023/08/05 11:24:56;;;;;;;1.98;0.75;;;24.30;95.50;;;;;;5085444;28;20423;-70
2023/08/05 11:27:32;;;;;;;2.60;0.80;;;24.90;93.90;;;;;;5086855;28;20490;-70
2023/08/05 11:29:58;;;;;;;3.00;0.70;;;25.20;92.70;;;;;;5080512;28;20402;-70
2023/08/05 11:32:24;;;;;;;1.55;0.80;;;25.10;91.30;;;;;;5092350;28;20466;-71
2023/08/05 11:34:50;;;;;;;2.00;0.93;;;25.00;92.20;;;;;;5104101;28;20481;-70
2023/08/05 11:37:22;;;;;;;2.75;1.15;;;24.90;92.20;;;;;;5096757;28;20405;-70
2023/08/05 11:39:48;;;;;;;2.40;0.98;;;24.90;92.60;;;;;;5102957;28;20421;-71
2023/08/05 11:42:13;;;;;;;2.33;1.00;;;25.10;91.70;;;;;;5096340;28;20497;-71
2023/08/05 11:44:40;;;;;;;2.97;0.90;;;25.10;90.70;;;;;;5095611;28;20447;-70
2023/08/05 11:47:06;;;;;;;3.35;0.80;;;25.00;92.10;;;;;;5101148;28;20934;-71
2023/08/05 11:49:31;;;;;;;1.92;0.90;;;25.00;92.60;;;;;;5095959;28;20889;-70
2023/08/05 11:51:57;;;;;;;3.07;1.00;;;24.90;92.20;;;;;;5108409;28;20400;-71
2023/08/05 11:54:32;;;;;;;2.70;0.90;;;24.80;91.80;;;;;;5090673;28;20406;-71
2023/08/05 11:56:58;;;;;;;2.42;0.93;;;24.70;92.00;;;;;;5102964;28;20407;-71
2023/08/05 11:59:36;;;;;;;2.80;0.88;;;24.80;92.50;;;;;;5097212;28;20516;-71
2023/08/05 12:02:02;;;;;;;1.90;0.70;;;24.80;91.70;;;;;;5108006;28;20411;-71
2023/08/05 12:04:28;;;;;;;2.08;0.90;;;24.90;92.10;;;;;;5109680;28;20872;-71
2023/08/05 12:06:53;;;;;;;1.73;0.83;;;25.10;92.00;;;;;;5107078;28;20501;-71
2023/08/05 12:09:19;;;;;;;2.00;0.90;;;25.00;91.40;;;;;;5109201;28;20404;-70
2023/08/05 12:11:45;;;;;;;2.07;0.90;;;24.80;90.90;;;;;;5106751;28;20396;-70
2023/08/05 12:14:14;;;;;;;2.80;1.30;;;24.60;91.40;;;;;;5092678;28;20436;-70
2023/08/05 12:16:39;;;;;;;4.18;1.40;;;24.60;91.70;;;;;;5101708;28;20401;-71
2023/08/05 12:19:05;;;;;;;2.23;1.27;;;24.60;91.80;;;;;;5099716;28;20421;-71
2023/08/05 12:21:31;;;;;;;2.45;1.10;;;24.60;91.50;;;;;;5102865;28;20441;-71
2023/08/05 12:23:57;;;;;;;2.13;1.07;;;24.70;91.30;;;;;;5109000;28;20491;-71
2023/08/05 12:26:26;;;;;;;2.17;1.25;;;24.80;91.50;;;;;;5105977;28;20488;-71
2023/08/05 12:28:52;;;;;;;3.28;1.20;;;24.90;91.60;;;;;;5099965;28;20424;-71
2023/08/05 12:31:18;;;;;;;3.40;1.27;;;24.80;91.80;;;;;;5102229;28;20480;-70
2023/08/05 12:33:43;;;;;;;2.80;1.30;;;24.80;91.70;;;;;;5107732;28;20400;-70
2023/08/05 12:36:10;;;;;;;3.85;1.60;;;24.70;91.90;;;;;;5095878;28;20425;-71
2023/08/05 12:38:35;;;;;;;3.65;1.70;;;24.70;92.00;;;;;;5106283;28;20888;-71
2023/08/05 12:41:01;;;;;;;2.53;1.43;;;24.70;91.50;;;;;;5092961;28;20406;-70
2023/08/05 12:43:26;;;;;;;2.47;1.10;;;24.60;91.50;;;;;;5108061;28;20397;-71